createdAt,value
2022-08-11T00:01:14.982Z,17.10
2022-08-11T00:05:22.917Z,17.00
2022-08-11T00:09:39.478Z,16.93
2022-08-11T00:13:45.459Z,16.84
2022-08-11T00:17:48.159Z,16.83
2022-08-11T00:22:03.887Z,16.79
2022-08-11T00:26:08.947Z,16.63
2022-08-11T00:30:13.098Z,16.44
2022-08-11T00:34:18.495Z,16.30
2022-08-11T00:38:26.055Z,16.36
2022-08-11T00:43:01.852Z,16.44
2022-08-11T00:47:31.893Z,16.52
2022-08-11T00:52:04.312Z,16.41
2022-08-11T00:56:10.997Z,16.31
2022-08-11T01:00:19.550Z,16.18
2022-08-11T01:04:46.524Z,16.27
2022-08-11T01:09:22.328Z,16.27
2022-08-11T01:13:52.934Z,16.15
2022-08-11T01:18:28.704Z,16.14
2022-08-11T01:23:02.433Z,16.12
2022-08-11T01:27:40.025Z,15.81
2022-08-11T01:32:11.006Z,15.79
2022-08-11T01:36:37.953Z,15.86
2022-08-11T01:40:55.634Z,15.80
2022-08-11T01:45:07.870Z,15.67
2022-08-11T01:50:06.780Z,15.52
2022-08-11T01:54:05.540Z,15.41
2022-08-11T01:58:34.327Z,15.42
2022-08-11T02:03:08.612Z,15.42
2022-08-11T02:07:19.154Z,15.40
2022-08-11T02:11:31.021Z,15.43
2022-08-11T02:15:47.024Z,15.39
2022-08-11T02:20:24.962Z,15.47
2022-08-11T02:24:34.620Z,15.34
2022-08-11T02:29:15.589Z,15.14
2022-08-11T02:33:24.678Z,15.21
2022-08-11T02:37:32.912Z,15.22
2022-08-11T02:42:32.483Z,15.14
2022-08-11T02:46:56.939Z,15.18
2022-08-11T02:51:21.341Z,15.21
2022-08-11T02:55:56.147Z,15.25
2022-08-11T03:00:07.437Z,15.03
2022-08-11T03:04:21.192Z,14.87
2022-08-11T03:08:53.207Z,14.67
2022-08-11T03:13:29.774Z,14.76
2022-08-11T03:17:42.956Z,14.66
2022-08-11T03:22:02.525Z,14.72
2022-08-11T03:26:19.484Z,14.71
2022-08-11T03:30:32.535Z,14.56
2022-08-11T03:34:39.786Z,14.51
2022-08-11T03:39:08.017Z,14.66
2022-08-11T03:43:31.806Z,14.69
2022-08-11T03:47:54.995Z,14.71
2022-08-11T03:52:13.148Z,14.56
2022-08-11T03:56:33.945Z,14.43
2022-08-11T04:01:07.771Z,14.38
2022-08-11T04:05:31.766Z,14.40
2022-08-11T04:09:55.448Z,14.26
2022-08-11T04:14:55.924Z,14.12
2022-08-11T04:19:28.734Z,14.05
2022-08-11T04:24:13.219Z,14.16
2022-08-11T04:28:43.042Z,14.22
2022-08-11T04:33:11.375Z,14.28
2022-08-11T04:37:43.388Z,14.38
2022-08-11T04:42:41.888Z,14.46
2022-08-11T04:47:02.539Z,14.94
2022-08-11T04:51:51.119Z,15.35
2022-08-11T04:56:17.715Z,16.80
2022-08-11T05:00:38.610Z,18.04
2022-08-11T05:05:56.804Z,18.77
2022-08-11T05:10:17.261Z,18.23
2022-08-11T05:14:53.457Z,19.20
2022-08-11T05:19:16.436Z,20.52
2022-08-11T05:23:42.853Z,20.39
2022-08-11T05:28:14.022Z,19.36
2022-08-11T05:32:36.533Z,18.83
2022-08-11T05:37:25.116Z,18.51
2022-08-11T05:41:49.728Z,20.73
2022-08-11T05:46:19.789Z,24.25
2022-08-11T05:50:42.620Z,26.89
2022-08-11T05:55:09.951Z,29.28
2022-08-11T05:59:18.550Z,30.96
2022-08-11T06:03:27.952Z,32.06
2022-08-11T06:07:48.964Z,32.88
2022-08-11T06:11:52.859Z,33.73
2022-08-11T06:15:56.016Z,34.47
2022-08-11T06:20:06.999Z,35.23
2022-08-11T06:24:14.677Z,35.92
2022-08-11T06:28:22.576Z,36.61
2022-08-11T06:32:36.490Z,37.31
2022-08-11T06:36:51.424Z,37.89
2022-08-11T06:41:15.222Z,37.94
2022-08-11T06:45:35.179Z,37.35
2022-08-11T06:50:01.852Z,37.04
2022-08-11T06:54:05.796Z,36.89
2022-08-11T06:58:39.076Z,37.05
2022-08-11T07:03:00.898Z,37.70
2022-08-11T07:07:30.725Z,37.47
2022-08-11T07:12:21.113Z,33.56
2022-08-11T07:16:28.617Z,29.53
2022-08-11T07:20:50.021Z,27.51
2022-08-11T07:25:19.802Z,26.28
2022-08-11T07:29:22.997Z,25.81
2022-08-11T07:34:05.383Z,25.56
2022-08-11T07:38:11.673Z,25.50
2022-08-11T07:42:16.669Z,25.50
2022-08-11T07:46:41.474Z,25.36
2022-08-11T07:51:03.584Z,25.35
2022-08-11T07:55:10.371Z,25.40
2022-08-11T07:59:59.856Z,25.43
2022-08-11T08:04:12.390Z,25.53
2022-08-11T08:08:34.403Z,25.60
2022-08-11T08:12:55.495Z,25.72
2022-08-11T08:17:17.090Z,25.78
2022-08-11T08:21:19.747Z,25.82
2022-08-11T08:25:27.216Z,25.88
2022-08-11T08:29:52.926Z,25.93
2022-08-11T08:33:55.160Z,25.81
2022-08-11T08:37:59.702Z,25.77
2022-08-11T08:42:07.273Z,25.76
2022-08-11T08:46:11.547Z,25.90
2022-08-11T08:50:19.559Z,26.00
2022-08-11T08:54:29.449Z,26.08
2022-08-11T08:58:35.026Z,26.17
2022-08-11T09:02:37.812Z,26.17
2022-08-11T09:06:42.926Z,26.14
2022-08-11T09:11:13.634Z,26.25
2022-08-11T09:15:19.378Z,26.42
2022-08-11T09:19:23.864Z,26.43
2022-08-11T09:28:12.788Z,26.60
2022-08-11T09:32:19.203Z,26.72
2022-08-11T09:36:40.594Z,26.89
2022-08-11T09:40:45.218Z,27.03
2022-08-11T09:44:55.025Z,27.27
2022-08-11T09:49:02.186Z,27.42
2022-08-11T09:53:37.223Z,27.46
2022-08-11T09:57:47.938Z,27.70
2022-08-11T10:01:57.120Z,27.86
2022-08-11T10:06:20.190Z,27.93
2022-08-11T10:10:37.861Z,27.83
2022-08-11T10:15:06.729Z,27.89
2022-08-11T10:19:10.246Z,28.01
2022-08-11T10:23:32.123Z,28.16
2022-08-11T10:28:17.112Z,28.07
2022-08-11T10:32:16.586Z,28.06
2022-08-11T10:36:20.382Z,27.91
2022-08-11T10:40:23.824Z,27.80
2022-08-11T10:44:26.888Z,27.91
2022-08-11T10:48:31.757Z,27.84
2022-08-11T10:52:54.728Z,27.65
2022-08-11T10:57:16.229Z,27.54
2022-08-11T11:01:22.624Z,27.76
2022-08-11T11:05:30.436Z,27.94
2022-08-11T11:09:40.797Z,28.03
2022-08-11T11:14:06.225Z,28.05
2022-08-11T11:18:19.528Z,28.22
2022-08-11T11:22:38.409Z,28.32
2022-08-11T11:27:02.977Z,28.36
2022-08-11T11:31:22.330Z,28.52
2022-08-11T11:35:31.108Z,28.58
2022-08-11T11:39:35.132Z,28.60
2022-08-11T11:43:37.457Z,28.51
2022-08-11T11:47:40.222Z,28.55
2022-08-11T11:51:43.563Z,28.60
2022-08-11T11:55:47.781Z,28.73
2022-08-11T12:00:10.294Z,28.86
2022-08-11T12:04:15.284Z,28.75
2022-08-11T12:08:17.867Z,28.79
2022-08-11T12:12:39.639Z,28.80
2022-08-11T12:16:44.674Z,28.82
2022-08-11T12:20:47.470Z,28.77
2022-08-11T12:25:21.808Z,28.83
2022-08-11T12:29:27.225Z,28.83
2022-08-11T12:33:29.343Z,28.81
2022-08-11T12:37:44.674Z,28.89
2022-08-11T12:42:06.131Z,28.98
2022-08-11T12:46:16.833Z,29.12
2022-08-11T12:50:37.702Z,29.23
2022-08-11T12:55:13.814Z,29.23
2022-08-11T12:59:35.043Z,29.33
2022-08-11T13:03:57.914Z,29.33
2022-08-11T13:08:04.099Z,29.49
2022-08-11T13:12:25.389Z,29.51
2022-08-11T13:16:57.145Z,29.54
2022-08-11T13:21:00.121Z,29.40
2022-08-11T13:25:04.428Z,29.49
2022-08-11T13:29:06.571Z,29.54
2022-08-11T13:33:10.189Z,29.54
2022-08-11T13:37:14.485Z,29.63
2022-08-11T13:41:36.815Z,29.71
2022-08-11T13:45:39.504Z,29.84
2022-08-11T13:49:44.189Z,29.86
2022-08-11T13:53:46.387Z,29.89
2022-08-11T13:58:19.331Z,29.92
2022-08-11T14:02:29.511Z,29.91
2022-08-11T14:06:34.886Z,29.87
2022-08-11T14:10:39.041Z,29.85
2022-08-11T14:14:43.474Z,29.98
2022-08-11T14:18:48.418Z,30.07
2022-08-11T14:22:52.397Z,29.99
2022-08-11T14:26:55.421Z,29.99
2022-08-11T14:31:01.505Z,29.96
2022-08-11T14:35:04.921Z,30.15
2022-08-11T14:39:12.555Z,30.11
2022-08-11T14:44:14.110Z,30.14
2022-08-11T14:48:01.247Z,30.18
2022-08-11T14:52:31.772Z,30.11
2022-08-11T14:56:37.168Z,30.13
2022-08-11T15:00:41.644Z,30.11
2022-08-11T15:04:43.821Z,30.14
2022-08-11T15:08:55.099Z,30.19
2022-08-11T15:12:57.708Z,30.27
2022-08-11T15:17:08.915Z,30.19
2022-08-11T15:21:29.808Z,30.15
2022-08-11T15:25:34.853Z,30.24
2022-08-11T15:29:57.892Z,30.20
2022-08-11T15:34:22.545Z,30.36
2022-08-11T15:38:26.005Z,30.45
2022-08-11T15:42:48.820Z,30.47
2022-08-11T15:46:55.445Z,30.53
2022-08-11T15:51:00.477Z,30.52
2022-08-11T15:55:08.891Z,30.47
2022-08-11T15:59:42.967Z,30.51
2022-08-11T16:04:12.663Z,30.52
2022-08-11T16:08:17.646Z,30.33
2022-08-11T16:12:39.325Z,30.24
2022-08-11T16:16:42.832Z,30.11
2022-08-11T16:20:46.724Z,30.09
2022-08-11T16:27:01.926Z,30.01
2022-08-11T16:29:14.260Z,29.93
2022-08-11T16:33:22.667Z,29.84
2022-08-11T16:38:00.368Z,29.74
2022-08-11T16:43:05.331Z,29.73
2022-08-11T16:47:01.721Z,29.77
2022-08-11T16:51:07.983Z,29.74
2022-08-11T16:55:10.299Z,29.60
2022-08-11T16:59:31.801Z,29.47
2022-08-11T17:03:55.952Z,29.44
2022-08-11T17:08:21.073Z,29.45
2022-08-11T17:12:48.142Z,29.41
2022-08-11T17:16:51.245Z,29.37
2022-08-11T17:20:53.418Z,29.35
2022-08-11T17:24:56.656Z,29.33
2022-08-11T17:29:00.903Z,29.26
2022-08-11T17:33:21.471Z,29.22
2022-08-11T17:37:24.859Z,29.18
2022-08-11T17:41:45.566Z,29.11
2022-08-11T17:46:08.411Z,29.01
2022-08-11T17:50:17.664Z,28.86
2022-08-11T17:54:41.806Z,28.73
2022-08-11T17:59:04.153Z,28.53
2022-08-11T18:03:25.779Z,28.33
2022-08-11T18:07:46.825Z,28.20
2022-08-11T18:12:11.810Z,28.07
2022-08-11T18:16:33.708Z,27.96
2022-08-11T18:20:55.490Z,27.86
2022-08-11T18:25:22.493Z,27.75
2022-08-11T18:29:43.470Z,27.59
2022-08-11T18:34:11.500Z,27.42
2022-08-11T18:38:34.793Z,27.28
2022-08-11T18:43:00.320Z,27.11
2022-08-11T18:47:27.432Z,26.95
2022-08-11T18:51:51.784Z,26.77
2022-08-11T18:56:12.677Z,26.59
2022-08-11T19:00:33.664Z,26.40
2022-08-11T19:04:55.470Z,26.26
2022-08-11T19:09:18.451Z,26.16
2022-08-11T19:13:43.561Z,26.08
2022-08-11T19:18:07.058Z,25.94
2022-08-11T19:22:29.307Z,25.80
2022-08-11T19:26:52.509Z,25.66
2022-08-11T19:31:14.885Z,25.50
2022-08-11T19:35:36.357Z,25.43
2022-08-11T19:39:59.509Z,25.36
2022-08-11T19:44:21.185Z,25.21
2022-08-11T19:48:44.764Z,25.10
2022-08-11T19:53:17.531Z,24.93
2022-08-11T19:57:40.653Z,24.75
2022-08-11T20:02:13.593Z,24.56
2022-08-11T20:06:37.310Z,24.39
2022-08-11T20:10:59.313Z,24.28
2022-08-11T20:15:21.837Z,24.12
2022-08-11T20:19:56.495Z,23.93
2022-08-11T20:24:20.223Z,23.76
2022-08-11T20:28:40.791Z,23.57
2022-08-11T20:33:03.193Z,23.36
2022-08-11T20:37:24.950Z,23.33
2022-08-11T20:41:58.950Z,23.40
2022-08-11T20:46:22.477Z,23.56
2022-08-11T20:50:45.674Z,23.66
2022-08-11T20:55:10.877Z,23.71
2022-08-11T20:59:49.443Z,23.71
2022-08-11T21:04:17.615Z,23.80
2022-08-11T21:08:45.201Z,23.86
2022-08-11T21:13:24.301Z,23.88
2022-08-11T21:18:00.712Z,23.94
2022-08-11T21:22:31.724Z,23.96
2022-08-11T21:26:59.201Z,23.93
2022-08-11T21:31:24.650Z,23.92
2022-08-11T21:35:45.633Z,23.82
2022-08-11T21:40:09.960Z,23.68
2022-08-11T21:44:32.997Z,23.50
2022-08-11T21:48:57.750Z,23.32
2022-08-11T21:53:19.406Z,23.10
2022-08-11T21:57:47.653Z,22.90
2022-08-11T22:02:12.767Z,22.73
2022-08-11T22:06:35.657Z,22.50
2022-08-11T22:10:56.918Z,22.26
2022-08-11T22:15:17.722Z,22.10
2022-08-11T22:19:40.381Z,21.81
2022-08-11T22:24:03.645Z,21.56
2022-08-11T22:28:29.012Z,21.35
2022-08-11T22:32:50.822Z,21.25
2022-08-11T22:37:27.023Z,21.16
2022-08-11T22:41:48.319Z,20.98
2022-08-11T22:46:09.084Z,20.80
2022-08-11T22:50:32.473Z,20.64
2022-08-11T22:54:53.876Z,20.42
2022-08-11T22:59:15.612Z,20.27
2022-08-11T23:03:38.612Z,20.19
2022-08-11T23:07:59.954Z,20.09
2022-08-11T23:12:21.604Z,19.82
2022-08-11T23:16:43.010Z,19.63
2022-08-11T23:21:04.433Z,19.51
2022-08-11T23:25:25.772Z,19.46
2022-08-11T23:29:48.046Z,19.33
2022-08-11T23:34:37.028Z,19.30
2022-08-11T23:38:55.701Z,19.32
2022-08-11T23:43:16.704Z,19.20
2022-08-11T23:47:50.327Z,19.05
2022-08-11T23:52:12.222Z,18.93
2022-08-11T23:56:33.713Z,18.83
